sensor_id;sensor_type;location;lat;lon;timestamp;P1;durP1;ratioP1;P2;durP2;ratioP2
4468;SDS011;2247;42.666;23.292;2023-03-01T00:02:15;5.60;;;4.23;;
4468;SDS011;2247;42.666;23.292;2023-03-01T00:04:42;5.70;;;4.00;;
4468;SDS011;2247;42.666;23.292;2023-03-01T00:07:10;5.50;;;3.43;;
4468;SDS011;2247;42.666;23.292;2023-03-01T00:09:37;3.80;;;3.43;;
4468;SDS011;2247;42.666;23.292;2023-03-01T00:12:05;4.33;;;3.83;;
4468;SDS011;2247;42.666;23.292;2023-03-01T00:14:32;4.00;;;3.60;;
4468;SDS011;2247;42.666;23.292;2023-03-01T00:17:01;3.77;;;3.47;;
4468;SDS011;2247;42.666;23.292;2023-03-01T00:19:27;3.77;;;3.47;;
4468;SDS011;2247;42.666;23.292;2023-03-01T00:21:54;3.93;;;3.60;;
4468;SDS011;2247;42.666;23.292;2023-03-01T00:24:21;4.00;;;3.67;;
4468;SDS011;2247;42.666;23.292;2023-03-01T00:26:48;3.47;;;3.17;;
4468;SDS011;2247;42.666;23.292;2023-03-01T00:29:14;3.90;;;3.50;;
4468;SDS011;2247;42.666;23.292;2023-03-01T00:31:41;3.80;;;3.50;;
4468;SDS011;2247;42.666;23.292;2023-03-01T00:34:09;5.07;;;3.03;;
4468;SDS011;2247;42.666;23.292;2023-03-01T00:36:37;3.20;;;3.00;;
4468;SDS011;2247;42.666;23.292;2023-03-01T00:39:05;11.40;;;3.63;;
4468;SDS011;2247;42.666;23.292;2023-03-01T00:41:34;4.20;;;3.37;;
4468;SDS011;2247;42.666;23.292;2023-03-01T00:44:01;3.03;;;2.73;;
4468;SDS011;2247;42.666;23.292;2023-03-01T00:46:28;3.50;;;3.20;;
4468;SDS011;2247;42.666;23.292;2023-03-01T00:48:56;3.17;;;2.93;;
4468;SDS011;2247;42.666;23.292;2023-03-01T00:51:25;3.73;;;3.40;;
4468;SDS011;2247;42.666;23.292;2023-03-01T00:53:54;3.73;;;3.43;;
4468;SDS011;2247;42.666;23.292;2023-03-01T00:56:22;3.20;;;2.90;;
4468;SDS011;2247;42.666;23.292;2023-03-01T00:58:50;3.30;;;3.00;;
4468;SDS011;2247;42.666;23.292;2023-03-01T01:01:18;3.17;;;2.70;;
4468;SDS011;2247;42.666;23.292;2023-03-01T01:03:47;3.00;;;2.80;;
4468;SDS011;2247;42.666;23.292;2023-03-01T01:06:17;3.17;;;2.97;;
4468;SDS011;2247;42.666;23.292;2023-03-01T01:08:46;2.87;;;2.67;;
4468;SDS011;2247;42.666;23.292;2023-03-01T01:11:13;3.17;;;2.87;;
4468;SDS011;2247;42.666;23.292;2023-03-01T01:13:41;2.97;;;2.70;;
4468;SDS011;2247;42.666;23.292;2023-03-01T01:16:10;3.03;;;2.80;;
4468;SDS011;2247;42.666;23.292;2023-03-01T01:18:37;3.90;;;2.73;;
4468;SDS011;2247;42.666;23.292;2023-03-01T01:21:05;3.17;;;2.90;;
4468;SDS011;2247;42.666;23.292;2023-03-01T01:23:33;2.83;;;2.63;;
4468;SDS011;2247;42.666;23.292;2023-03-01T01:26:05;2.70;;;2.50;;
4468;SDS011;2247;42.666;23.292;2023-03-01T01:28:33;2.60;;;2.40;;
4468;SDS011;2247;42.666;23.292;2023-03-01T01:30:59;2.47;;;2.27;;
4468;SDS011;2247;42.666;23.292;2023-03-01T01:33:26;2.50;;;2.40;;
4468;SDS011;2247;42.666;23.292;2023-03-01T01:35:53;2.83;;;2.33;;
4468;SDS011;2247;42.666;23.292;2023-03-01T01:38:20;1.90;;;1.80;;
4468;SDS011;2247;42.666;23.292;2023-03-01T01:40:48;2.60;;;2.40;;
4468;SDS011;2247;42.666;23.292;2023-03-01T01:43:19;2.10;;;2.00;;
4468;SDS011;2247;42.666;23.292;2023-03-01T01:45:49;2.50;;;2.30;;
4468;SDS011;2247;42.666;23.292;2023-03-01T01:48:17;2.07;;;1.97;;
4468;SDS011;2247;42.666;23.292;2023-03-01T01:50:47;2.17;;;2.07;;
4468;SDS011;2247;42.666;23.292;2023-03-01T01:53:21;2.00;;;1.90;;
4468;SDS011;2247;42.666;23.292;2023-03-01T01:55:49;1.97;;;1.87;;
4468;SDS011;2247;42.666;23.292;2023-03-01T01:58:21;1.73;;;1.63;;
4468;SDS011;2247;42.666;23.292;2023-03-01T02:00:48;1.60;;;1.50;;
4468;SDS011;2247;42.666;23.292;2023-03-01T02:03:17;1.77;;;1.67;;
4468;SDS011;2247;42.666;23.292;2023-03-01T02:05:49;1.67;;;1.63;;
4468;SDS011;2247;42.666;23.292;2023-03-01T02:08:22;1.53;;;1.53;;
4468;SDS011;2247;42.666;23.292;2023-03-01T02:10:53;1.53;;;1.43;;
4468;SDS011;2247;42.666;23.292;2023-03-01T02:13:23;1.77;;;1.67;;
4468;SDS011;2247;42.666;23.292;2023-03-01T02:15:50;1.77;;;1.67;;
4468;SDS011;2247;42.666;23.292;2023-03-01T02:18:18;1.70;;;1.70;;
4468;SDS011;2247;42.666;23.292;2023-03-01T02:20:50;1.87;;;1.87;;
4468;SDS011;2247;42.666;23.292;2023-03-01T02:23:27;2.20;;;2.10;;
4468;SDS011;2247;42.666;23.292;2023-03-01T02:25:56;2.03;;;1.93;;
4468;SDS011;2247;42.666;23.292;2023-03-01T02:28:32;1.67;;;1.57;;
4468;SDS011;2247;42.666;23.292;2023-03-01T02:31:00;1.77;;;1.73;;
4468;SDS011;2247;42.666;23.292;2023-03-01T02:33:46;1.93;;;1.83;;
4468;SDS011;2247;42.666;23.292;2023-03-01T02:36:15;1.97;;;1.87;;
4468;SDS011;2247;42.666;23.292;2023-03-01T02:38:45;1.70;;;1.70;;
4468;SDS011;2247;42.666;23.292;2023-03-01T02:41:13;2.00;;;1.90;;
4468;SDS011;2247;42.666;23.292;2023-03-01T02:43:43;1.80;;;1.80;;
4468;SDS011;2247;42.666;23.292;2023-03-01T02:46:13;1.73;;;1.63;;
4468;SDS011;2247;42.666;23.292;2023-03-01T02:48:43;2.20;;;2.10;;
4468;SDS011;2247;42.666;23.292;2023-03-01T02:51:14;2.30;;;2.20;;
4468;SDS011;2247;42.666;23.292;2023-03-01T02:54:07;2.03;;;1.93;;
4468;SDS011;2247;42.666;23.292;2023-03-01T02:56:44;2.43;;;2.30;;
4468;SDS011;2247;42.666;23.292;2023-03-01T02:59:14;2.50;;;2.40;;
4468;SDS011;2247;42.666;23.292;2023-03-01T03:01:42;6.00;;;2.23;;
4468;SDS011;2247;42.666;23.292;2023-03-01T03:04:10;2.53;;;2.43;;
4468;SDS011;2247;42.666;23.292;2023-03-01T03:06:42;4.20;;;2.43;;
4468;SDS011;2247;42.666;23.292;2023-03-01T03:09:09;3.30;;;3.10;;
4468;SDS011;2247;42.666;23.292;2023-03-01T03:11:36;3.77;;;3.47;;
4468;SDS011;2247;42.666;23.292;2023-03-01T03:14:04;3.37;;;3.00;;
4468;SDS011;2247;42.666;23.292;2023-03-01T03:16:40;3.40;;;3.10;;
4468;SDS011;2247;42.666;23.292;2023-03-01T03:19:08;4.20;;;3.60;;
4468;SDS011;2247;42.666;23.292;2023-03-01T03:21:35;3.70;;;3.40;;
4468;SDS011;2247;42.666;23.292;2023-03-01T03:24:02;3.53;;;3.23;;
4468;SDS011;2247;42.666;23.292;2023-03-01T03:26:30;3.50;;;3.20;;
4468;SDS011;2247;42.666;23.292;2023-03-01T03:28:57;4.27;;;3.87;;
4468;SDS011;2247;42.666;23.292;2023-03-01T03:31:24;4.50;;;4.10;;
4468;SDS011;2247;42.666;23.292;2023-03-01T03:33:53;4.33;;;3.93;;
4468;SDS011;2247;42.666;23.292;2023-03-01T03:36:21;4.80;;;4.30;;
4468;SDS011;2247;42.666;23.292;2023-03-01T03:38:49;4.57;;;4.13;;
4468;SDS011;2247;42.666;23.292;2023-03-01T03:41:16;3.97;;;3.67;;
4468;SDS011;2247;42.666;23.292;2023-03-01T03:43:44;3.97;;;3.63;;
4468;SDS011;2247;42.666;23.292;2023-03-01T03:46:11;4.20;;;3.87;;
4468;SDS011;2247;42.666;23.292;2023-03-01T03:48:39;4.00;;;3.63;;
4468;SDS011;2247;42.666;23.292;2023-03-01T03:51:11;3.77;;;3.47;;
4468;SDS011;2247;42.666;23.292;2023-03-01T03:53:39;4.43;;;3.73;;
4468;SDS011;2247;42.666;23.292;2023-03-01T03:56:06;3.90;;;3.50;;
4468;SDS011;2247;42.666;23.292;2023-03-01T03:58:34;3.40;;;3.10;;
4468;SDS011;2247;42.666;23.292;2023-03-01T04:01:01;3.37;;;2.97;;
4468;SDS011;2247;42.666;23.292;2023-03-01T04:03:28;3.40;;;3.10;;
4468;SDS011;2247;42.666;23.292;2023-03-01T04:05:57;3.47;;;3.17;;
4468;SDS011;2247;42.666;23.292;2023-03-01T04:08:26;3.20;;;2.90;;
4468;SDS011;2247;42.666;23.292;2023-03-01T04:10:56;3.90;;;3.00;;
4468;SDS011;2247;42.666;23.292;2023-03-01T04:13:25;4.77;;;2.70;;
4468;SDS011;2247;42.666;23.292;2023-03-01T04:15:52;3.20;;;3.00;;
4468;SDS011;2247;42.666;23.292;2023-03-01T04:18:21;2.93;;;2.60;;
4468;SDS011;2247;42.666;23.292;2023-03-01T04:20:49;3.03;;;2.83;;
4468;SDS011;2247;42.666;23.292;2023-03-01T04:23:20;2.73;;;2.53;;
4468;SDS011;2247;42.666;23.292;2023-03-01T04:25:49;4.57;;;2.63;;
4468;SDS011;2247;42.666;23.292;2023-03-01T04:28:20;3.00;;;2.80;;
4468;SDS011;2247;42.666;23.292;2023-03-01T04:30:49;2.90;;;2.70;;
4468;SDS011;2247;42.666;23.292;2023-03-01T04:33:16;3.80;;;3.00;;
4468;SDS011;2247;42.666;23.292;2023-03-01T04:35:43;5.00;;;3.67;;
4468;SDS011;2247;42.666;23.292;2023-03-01T04:38:10;4.50;;;3.80;;
4468;SDS011;2247;42.666;23.292;2023-03-01T04:40:37;3.10;;;2.90;;
4468;SDS011;2247;42.666;23.292;2023-03-01T04:43:05;3.07;;;2.83;;
4468;SDS011;2247;42.666;23.292;2023-03-01T04:45:32;3.20;;;2.90;;
4468;SDS011;2247;42.666;23.292;2023-03-01T04:48:00;3.37;;;3.07;;
4468;SDS011;2247;42.666;23.292;2023-03-01T04:50:27;3.37;;;3.07;;
4468;SDS011;2247;42.666;23.292;2023-03-01T04:52:54;3.20;;;2.90;;
4468;SDS011;2247;42.666;23.292;2023-03-01T04:55:23;4.97;;;3.30;;
4468;SDS011;2247;42.666;23.292;2023-03-01T04:57:51;3.50;;;3.20;;
4468;SDS011;2247;42.666;23.292;2023-03-01T05:00:20;3.23;;;2.93;;
4468;SDS011;2247;42.666;23.292;2023-03-01T05:02:48;3.87;;;3.50;;
4468;SDS011;2247;42.666;23.292;2023-03-01T05:05:21;3.37;;;3.13;;
4468;SDS011;2247;42.666;23.292;2023-03-01T05:07:53;2.77;;;2.57;;
4468;SDS011;2247;42.666;23.292;2023-03-01T05:10:22;3.60;;;3.30;;
4468;SDS011;2247;42.666;23.292;2023-03-01T05:12:49;3.93;;;3.03;;
4468;SDS011;2247;42.666;23.292;2023-03-01T05:15:17;3.40;;;3.10;;
4468;SDS011;2247;42.666;23.292;2023-03-01T05:17:45;4.00;;;3.60;;
4468;SDS011;2247;42.666;23.292;2023-03-01T05:20:13;4.00;;;3.63;;
4468;SDS011;2247;42.666;23.292;2023-03-01T05:22:40;3.10;;;2.90;;
4468;SDS011;2247;42.666;23.292;2023-03-01T05:25:07;3.17;;;2.90;;
4468;SDS011;2247;42.666;23.292;2023-03-01T05:27:34;3.23;;;2.80;;
4468;SDS011;2247;42.666;23.292;2023-03-01T05:30:01;3.47;;;3.17;;
4468;SDS011;2247;42.666;23.292;2023-03-01T05:32:39;4.00;;;3.30;;
4468;SDS011;2247;42.666;23.292;2023-03-01T05:35:09;5.77;;;3.43;;
4468;SDS011;2247;42.666;23.292;2023-03-01T05:37:38;3.60;;;3.23;;
4468;SDS011;2247;42.666;23.292;2023-03-01T05:40:07;2.87;;;2.67;;
4468;SDS011;2247;42.666;23.292;2023-03-01T05:42:43;5.50;;;2.90;;
4468;SDS011;2247;42.666;23.292;2023-03-01T05:45:10;3.17;;;2.97;;
4468;SDS011;2247;42.666;23.292;2023-03-01T05:47:38;7.83;;;3.07;;
4468;SDS011;2247;42.666;23.292;2023-03-01T05:50:10;3.03;;;2.83;;
4468;SDS011;2247;42.666;23.292;2023-03-01T05:52:39;3.10;;;2.90;;
4468;SDS011;2247;42.666;23.292;2023-03-01T05:55:07;2.70;;;2.50;;
4468;SDS011;2247;42.666;23.292;2023-03-01T05:57:34;3.23;;;2.40;;
4468;SDS011;2247;42.666;23.292;2023-03-01T06:00:01;2.80;;;2.60;;
4468;SDS011;2247;42.666;23.292;2023-03-01T06:02:29;3.00;;;2.80;;
4468;SDS011;2247;42.666;23.292;2023-03-01T06:04:56;2.67;;;2.47;;
4468;SDS011;2247;42.666;23.292;2023-03-01T06:07:24;2.40;;;2.30;;
4468;SDS011;2247;42.666;23.292;2023-03-01T06:09:52;2.83;;;2.63;;
4468;SDS011;2247;42.666;23.292;2023-03-01T06:12:19;2.70;;;2.50;;
4468;SDS011;2247;42.666;23.292;2023-03-01T06:14:46;2.20;;;2.10;;
4468;SDS011;2247;42.666;23.292;2023-03-01T06:17:13;3.67;;;2.43;;
4468;SDS011;2247;42.666;23.292;2023-03-01T06:19:40;2.73;;;2.50;;
4468;SDS011;2247;42.666;23.292;2023-03-01T06:22:07;2.60;;;2.40;;
4468;SDS011;2247;42.666;23.292;2023-03-01T06:24:36;2.67;;;2.00;;
4468;SDS011;2247;42.666;23.292;2023-03-01T06:27:03;2.50;;;2.40;;
4468;SDS011;2247;42.666;23.292;2023-03-01T06:29:30;2.30;;;2.10;;
4468;SDS011;2247;42.666;23.292;2023-03-01T06:31:57;2.60;;;2.40;;
4468;SDS011;2247;42.666;23.292;2023-03-01T06:34:23;2.80;;;2.60;;
4468;SDS011;2247;42.666;23.292;2023-03-01T06:36:50;3.23;;;2.93;;
4468;SDS011;2247;42.666;23.292;2023-03-01T06:39:17;4.63;;;2.83;;
4468;SDS011;2247;42.666;23.292;2023-03-01T06:41:45;2.87;;;2.67;;
4468;SDS011;2247;42.666;23.292;2023-03-01T06:44:12;2.00;;;1.90;;
4468;SDS011;2247;42.666;23.292;2023-03-01T06:46:39;3.10;;;2.80;;
4468;SDS011;2247;42.666;23.292;2023-03-01T06:49:06;2.60;;;2.40;;
4468;SDS011;2247;42.666;23.292;2023-03-01T06:51:34;2.63;;;2.43;;
4468;SDS011;2247;42.666;23.292;2023-03-01T06:54:02;2.50;;;2.30;;
4468;SDS011;2247;42.666;23.292;2023-03-01T06:56:30;3.47;;;2.27;;
4468;SDS011;2247;42.666;23.292;2023-03-01T06:58:59;2.67;;;2.47;;
4468;SDS011;2247;42.666;23.292;2023-03-01T07:01:26;2.10;;;2.00;;
4468;SDS011;2247;42.666;23.292;2023-03-01T07:03:53;5.90;;;2.47;;
4468;SDS011;2247;42.666;23.292;2023-03-01T07:06:20;2.30;;;2.10;;
4468;SDS011;2247;42.666;23.292;2023-03-01T07:08:47;2.23;;;2.03;;
4468;SDS011;2247;42.666;23.292;2023-03-01T07:11:14;5.03;;;2.40;;
4468;SDS011;2247;42.666;23.292;2023-03-01T07:13:41;2.30;;;1.90;;
4468;SDS011;2247;42.666;23.292;2023-03-01T07:16:10;2.37;;;2.13;;
4468;SDS011;2247;42.666;23.292;2023-03-01T07:18:37;2.47;;;2.27;;
4468;SDS011;2247;42.666;23.292;2023-03-01T07:21:04;3.80;;;2.47;;
4468;SDS011;2247;42.666;23.292;2023-03-01T07:23:32;4.20;;;2.37;;
4468;SDS011;2247;42.666;23.292;2023-03-01T07:25:59;4.80;;;2.30;;
4468;SDS011;2247;42.666;23.292;2023-03-01T07:28:26;6.00;;;2.40;;
4468;SDS011;2247;42.666;23.292;2023-03-01T07:30:53;3.20;;;2.37;;
4468;SDS011;2247;42.666;23.292;2023-03-01T07:33:22;2.77;;;2.50;;
4468;SDS011;2247;42.666;23.292;2023-03-01T07:35:55;2.40;;;2.20;;
4468;SDS011;2247;42.666;23.292;2023-03-01T07:38:23;5.87;;;3.57;;
4468;SDS011;2247;42.666;23.292;2023-03-01T07:40:49;4.00;;;2.27;;
4468;SDS011;2247;42.666;23.292;2023-03-01T07:43:16;2.53;;;2.33;;
4468;SDS011;2247;42.666;23.292;2023-03-01T07:45:44;2.57;;;2.37;;
4468;SDS011;2247;42.666;23.292;2023-03-01T07:48:13;2.83;;;2.37;;
4468;SDS011;2247;42.666;23.292;2023-03-01T07:50:52;5.97;;;2.10;;
4468;SDS011;2247;42.666;23.292;2023-03-01T07:53:19;2.73;;;2.13;;
4468;SDS011;2247;42.666;23.292;2023-03-01T07:55:45;2.33;;;2.13;;
4468;SDS011;2247;42.666;23.292;2023-03-01T07:58:12;2.33;;;2.10;;
4468;SDS011;2247;42.666;23.292;2023-03-01T08:00:39;2.60;;;2.40;;
4468;SDS011;2247;42.666;23.292;2023-03-01T08:03:06;9.50;;;3.20;;
4468;SDS011;2247;42.666;23.292;2023-03-01T08:05:33;3.80;;;2.07;;
4468;SDS011;2247;42.666;23.292;2023-03-01T08:08:02;2.67;;;2.33;;
4468;SDS011;2247;42.666;23.292;2023-03-01T08:10:31;3.27;;;2.70;;
4468;SDS011;2247;42.666;23.292;2023-03-01T08:13:00;3.33;;;2.40;;
4468;SDS011;2247;42.666;23.292;2023-03-01T08:15:27;2.50;;;2.30;;
4468;SDS011;2247;42.666;23.292;2023-03-01T08:17:54;2.40;;;2.30;;
4468;SDS011;2247;42.666;23.292;2023-03-01T08:20:21;2.60;;;2.37;;
4468;SDS011;2247;42.666;23.292;2023-03-01T08:22:54;3.33;;;3.03;;
4468;SDS011;2247;42.666;23.292;2023-03-01T08:25:23;4.23;;;3.40;;
4468;SDS011;2247;42.666;23.292;2023-03-01T08:27:49;5.70;;;5.00;;
4468;SDS011;2247;42.666;23.292;2023-03-01T08:30:16;5.03;;;4.37;;
4468;SDS011;2247;42.666;23.292;2023-03-01T08:32:44;6.77;;;4.70;;
4468;SDS011;2247;42.666;23.292;2023-03-01T08:35:10;6.23;;;5.17;;
4468;SDS011;2247;42.666;23.292;2023-03-01T08:37:40;6.63;;;4.20;;
4468;SDS011;2247;42.666;23.292;2023-03-01T08:40:08;6.83;;;3.83;;
4468;SDS011;2247;42.666;23.292;2023-03-01T08:42:37;4.33;;;3.93;;
4468;SDS011;2247;42.666;23.292;2023-03-01T08:45:04;4.00;;;3.70;;
4468;SDS011;2247;42.666;23.292;2023-03-01T08:47:32;6.53;;;4.67;;
4468;SDS011;2247;42.666;23.292;2023-03-01T08:49:59;3.93;;;3.63;;
4468;SDS011;2247;42.666;23.292;2023-03-01T08:52:26;3.50;;;3.20;;
4468;SDS011;2247;42.666;23.292;2023-03-01T08:54:55;2.50;;;2.40;;
4468;SDS011;2247;42.666;23.292;2023-03-01T08:57:22;2.40;;;2.20;;
4468;SDS011;2247;42.666;23.292;2023-03-01T08:59:50;2.10;;;2.00;;
4468;SDS011;2247;42.666;23.292;2023-03-01T09:02:19;2.57;;;2.40;;
4468;SDS011;2247;42.666;23.292;2023-03-01T09:04:46;2.40;;;2.30;;
4468;SDS011;2247;42.666;23.292;2023-03-01T09:07:13;3.40;;;3.00;;
4468;SDS011;2247;42.666;23.292;2023-03-01T09:09:40;3.30;;;3.10;;
4468;SDS011;2247;42.666;23.292;2023-03-01T09:12:07;7.33;;;3.30;;
4468;SDS011;2247;42.666;23.292;2023-03-01T09:14:36;3.60;;;3.30;;
4468;SDS011;2247;42.666;23.292;2023-03-01T09:17:05;3.17;;;2.87;;
4468;SDS011;2247;42.666;23.292;2023-03-01T09:19:32;3.60;;;3.30;;
4468;SDS011;2247;42.666;23.292;2023-03-01T09:21:59;3.70;;;3.40;;
4468;SDS011;2247;42.666;23.292;2023-03-01T09:24:28;3.50;;;3.20;;
4468;SDS011;2247;42.666;23.292;2023-03-01T09:26:55;3.37;;;3.07;;
4468;SDS011;2247;42.666;23.292;2023-03-01T09:29:23;3.13;;;2.73;;
4468;SDS011;2247;42.666;23.292;2023-03-01T09:31:51;2.53;;;2.30;;
4468;SDS011;2247;42.666;23.292;2023-03-01T09:34:21;3.30;;;3.00;;
4468;SDS011;2247;42.666;23.292;2023-03-01T09:36:49;3.20;;;2.93;;
4468;SDS011;2247;42.666;23.292;2023-03-01T09:39:17;3.00;;;2.80;;
4468;SDS011;2247;42.666;23.292;2023-03-01T09:41:47;3.10;;;2.90;;
4468;SDS011;2247;42.666;23.292;2023-03-01T09:47:02;3.23;;;2.20;;
4468;SDS011;2247;42.666;23.292;2023-03-01T09:49:32;2.13;;;1.93;;
4468;SDS011;2247;42.666;23.292;2023-03-01T09:52:03;2.07;;;1.97;;
4468;SDS011;2247;42.666;23.292;2023-03-01T09:54:46;2.60;;;2.40;;
4468;SDS011;2247;42.666;23.292;2023-03-01T09:57:16;2.40;;;2.20;;
4468;SDS011;2247;42.666;23.292;2023-03-01T09:59:49;1.70;;;1.60;;
4468;SDS011;2247;42.666;23.292;2023-03-01T10:02:45;2.23;;;2.00;;
4468;SDS011;2247;42.666;23.292;2023-03-01T10:05:33;2.00;;;1.90;;
4468;SDS011;2247;42.666;23.292;2023-03-01T10:08:19;2.10;;;2.00;;
4468;SDS011;2247;42.666;23.292;2023-03-01T10:10:56;1.93;;;1.70;;
4468;SDS011;2247;42.666;23.292;2023-03-01T10:13:25;2.70;;;2.50;;
4468;SDS011;2247;42.666;23.292;2023-03-01T10:16:01;3.83;;;2.60;;
4468;SDS011;2247;42.666;23.292;2023-03-01T10:18:35;4.97;;;2.77;;
4468;SDS011;2247;42.666;23.292;2023-03-01T10:21:08;3.30;;;2.20;;
4468;SDS011;2247;42.666;23.292;2023-03-01T10:23:40;2.83;;;2.10;;
4468;SDS011;2247;42.666;23.292;2023-03-01T10:26:21;6.10;;;3.00;;
4468;SDS011;2247;42.666;23.292;2023-03-01T10:29:05;4.00;;;2.67;;
4468;SDS011;2247;42.666;23.292;2023-03-01T10:31:38;2.37;;;2.17;;
4468;SDS011;2247;42.666;23.292;2023-03-01T10:34:09;3.30;;;3.00;;
4468;SDS011;2247;42.666;23.292;2023-03-01T10:36:40;2.60;;;2.40;;
4468;SDS011;2247;42.666;23.292;2023-03-01T10:39:12;3.43;;;3.03;;
4468;SDS011;2247;42.666;23.292;2023-03-01T10:41:55;3.17;;;2.87;;
4468;SDS011;2247;42.666;23.292;2023-03-01T10:44:41;3.40;;;3.10;;
4468;SDS011;2247;42.666;23.292;2023-03-01T10:49:56;3.87;;;2.57;;
4468;SDS011;2247;42.666;23.292;2023-03-01T10:52:27;2.93;;;2.73;;
4468;SDS011;2247;42.666;23.292;2023-03-01T10:54:56;2.30;;;2.20;;
4468;SDS011;2247;42.666;23.292;2023-03-01T10:57:30;2.40;;;2.30;;
4468;SDS011;2247;42.666;23.292;2023-03-01T11:03:10;3.10;;;2.80;;
4468;SDS011;2247;42.666;23.292;2023-03-01T11:05:50;3.00;;;2.70;;
4468;SDS011;2247;42.666;23.292;2023-03-01T11:08:37;5.03;;;3.30;;
4468;SDS011;2247;42.666;23.292;2023-03-01T11:11:07;2.80;;;2.60;;
4468;SDS011;2247;42.666;23.292;2023-03-01T11:13:47;3.83;;;3.43;;
4468;SDS011;2247;42.666;23.292;2023-03-01T11:16:22;3.50;;;2.60;;
4468;SDS011;2247;42.666;23.292;2023-03-01T11:19:04;4.37;;;2.87;;
4468;SDS011;2247;42.666;23.292;2023-03-01T11:21:42;6.40;;;2.57;;
4468;SDS011;2247;42.666;23.292;2023-03-01T11:24:18;3.97;;;2.80;;
4468;SDS011;2247;42.666;23.292;2023-03-01T11:26:47;2.83;;;2.63;;
4468;SDS011;2247;42.666;23.292;2023-03-01T11:29:21;3.67;;;3.03;;
4468;SDS011;2247;42.666;23.292;2023-03-01T11:31:57;6.57;;;3.70;;
4468;SDS011;2247;42.666;23.292;2023-03-01T11:34:31;3.50;;;3.20;;
4468;SDS011;2247;42.666;23.292;2023-03-01T11:37:09;3.20;;;3.00;;
4468;SDS011;2247;42.666;23.292;2023-03-01T11:39:46;3.40;;;3.13;;
4468;SDS011;2247;42.666;23.292;2023-03-01T11:42:20;3.63;;;3.17;;
4468;SDS011;2247;42.666;23.292;2023-03-01T11:44:55;4.63;;;2.97;;
4468;SDS011;2247;42.666;23.292;2023-03-01T11:47:32;3.00;;;2.77;;
4468;SDS011;2247;42.666;23.292;2023-03-01T11:50:14;3.33;;;3.03;;
4468;SDS011;2247;42.666;23.292;2023-03-01T11:52:49;3.23;;;2.80;;
4468;SDS011;2247;42.666;23.292;2023-03-01T11:58:22;2.87;;;2.67;;
4468;SDS011;2247;42.666;23.292;2023-03-01T12:04:02;3.60;;;3.10;;
4468;SDS011;2247;42.666;23.292;2023-03-01T12:06:50;4.00;;;3.60;;
4468;SDS011;2247;42.666;23.292;2023-03-01T12:09:40;5.37;;;3.60;;
4468;SDS011;2247;42.666;23.292;2023-03-01T12:12:26;5.23;;;3.83;;
4468;SDS011;2247;42.666;23.292;2023-03-01T12:15:18;3.70;;;3.40;;
4468;SDS011;2247;42.666;23.292;2023-03-01T12:18:06;3.73;;;3.40;;
4468;SDS011;2247;42.666;23.292;2023-03-01T12:20:54;4.27;;;3.47;;
4468;SDS011;2247;42.666;23.292;2023-03-01T12:23:38;4.77;;;3.80;;
4468;SDS011;2247;42.666;23.292;2023-03-01T12:26:24;3.97;;;3.60;;
4468;SDS011;2247;42.666;23.292;2023-03-01T12:29:09;8.93;;;4.20;;
4468;SDS011;2247;42.666;23.292;2023-03-01T12:31:51;6.97;;;4.20;;
4468;SDS011;2247;42.666;23.292;2023-03-01T12:34:34;5.87;;;3.70;;
4468;SDS011;2247;42.666;23.292;2023-03-01T12:37:21;4.03;;;3.63;;
4468;SDS011;2247;42.666;23.292;2023-03-01T12:40:00;4.30;;;3.90;;
4468;SDS011;2247;42.666;23.292;2023-03-01T12:42:48;4.57;;;4.17;;
4468;SDS011;2247;42.666;23.292;2023-03-01T12:45:30;4.50;;;3.80;;
4468;SDS011;2247;42.666;23.292;2023-03-01T12:48:11;4.60;;;4.03;;
4468;SDS011;2247;42.666;23.292;2023-03-01T12:50:51;3.87;;;3.57;;
4468;SDS011;2247;42.666;23.292;2023-03-01T12:53:22;4.43;;;4.03;;
4468;SDS011;2247;42.666;23.292;2023-03-01T12:55:50;6.00;;;3.40;;
4468;SDS011;2247;42.666;23.292;2023-03-01T12:58:22;4.73;;;4.20;;
4468;SDS011;2247;42.666;23.292;2023-03-01T13:01:08;3.53;;;3.23;;
4468;SDS011;2247;42.666;23.292;2023-03-01T13:06:38;3.17;;;2.87;;
4468;SDS011;2247;42.666;23.292;2023-03-01T13:09:13;3.63;;;3.33;;
4468;SDS011;2247;42.666;23.292;2023-03-01T13:11:45;3.40;;;3.10;;
4468;SDS011;2247;42.666;23.292;2023-03-01T13:20:12;3.53;;;3.23;;
4468;SDS011;2247;42.666;23.292;2023-03-01T13:22:41;3.93;;;3.63;;
4468;SDS011;2247;42.666;23.292;2023-03-01T13:25:15;3.00;;;2.80;;
4468;SDS011;2247;42.666;23.292;2023-03-01T13:27:44;2.90;;;2.60;;
4468;SDS011;2247;42.666;23.292;2023-03-01T13:36:06;3.30;;;2.90;;
4468;SDS011;2247;42.666;23.292;2023-03-01T13:38:36;3.73;;;3.43;;
4468;SDS011;2247;42.666;23.292;2023-03-01T13:41:06;3.43;;;3.13;;
4468;SDS011;2247;42.666;23.292;2023-03-01T13:43:34;3.80;;;3.50;;
4468;SDS011;2247;42.666;23.292;2023-03-01T13:46:07;4.03;;;3.10;;
4468;SDS011;2247;42.666;23.292;2023-03-01T13:48:38;4.27;;;3.97;;
4468;SDS011;2247;42.666;23.292;2023-03-01T13:51:07;4.20;;;3.80;;
4468;SDS011;2247;42.666;23.292;2023-03-01T13:53:39;4.70;;;3.30;;
4468;SDS011;2247;42.666;23.292;2023-03-01T13:56:10;4.47;;;3.67;;
4468;SDS011;2247;42.666;23.292;2023-03-01T13:58:50;4.00;;;3.60;;
4468;SDS011;2247;42.666;23.292;2023-03-01T14:01:23;4.10;;;3.70;;
4468;SDS011;2247;42.666;23.292;2023-03-01T14:03:53;3.83;;;3.47;;
4468;SDS011;2247;42.666;23.292;2023-03-01T14:06:21;4.40;;;4.00;;
4468;SDS011;2247;42.666;23.292;2023-03-01T14:08:50;4.13;;;3.80;;
4468;SDS011;2247;42.666;23.292;2023-03-01T14:11:33;5.40;;;3.90;;
4468;SDS011;2247;42.666;23.292;2023-03-01T14:14:19;4.20;;;3.70;;
4468;SDS011;2247;42.666;23.292;2023-03-01T14:16:58;4.00;;;3.57;;
4468;SDS011;2247;42.666;23.292;2023-03-01T14:19:41;4.37;;;3.97;;
4468;SDS011;2247;42.666;23.292;2023-03-01T14:22:14;4.57;;;3.43;;
4468;SDS011;2247;42.666;23.292;2023-03-01T14:24:49;4.97;;;3.87;;
4468;SDS011;2247;42.666;23.292;2023-03-01T14:27:19;3.93;;;3.53;;
4468;SDS011;2247;42.666;23.292;2023-03-01T14:29:54;6.70;;;3.77;;
4468;SDS011;2247;42.666;23.292;2023-03-01T14:32:23;4.13;;;3.73;;
4468;SDS011;2247;42.666;23.292;2023-03-01T14:34:53;4.13;;;3.73;;
4468;SDS011;2247;42.666;23.292;2023-03-01T14:37:22;4.40;;;3.60;;
4468;SDS011;2247;42.666;23.292;2023-03-01T14:39:52;4.63;;;3.67;;
4468;SDS011;2247;42.666;23.292;2023-03-01T14:42:20;4.90;;;3.63;;
4468;SDS011;2247;42.666;23.292;2023-03-01T14:44:50;6.67;;;3.80;;
4468;SDS011;2247;42.666;23.292;2023-03-01T14:47:23;7.20;;;3.50;;
4468;SDS011;2247;42.666;23.292;2023-03-01T14:49:56;3.90;;;3.50;;
4468;SDS011;2247;42.666;23.292;2023-03-01T14:52:28;3.80;;;3.40;;
4468;SDS011;2247;42.666;23.292;2023-03-01T14:55:07;4.73;;;3.93;;
4468;SDS011;2247;42.666;23.292;2023-03-01T14:57:43;3.40;;;3.10;;
4468;SDS011;2247;42.666;23.292;2023-03-01T15:00:15;4.53;;;3.50;;
4468;SDS011;2247;42.666;23.292;2023-03-01T15:02:47;4.80;;;3.33;;
4468;SDS011;2247;42.666;23.292;2023-03-01T15:05:16;6.43;;;3.43;;
4468;SDS011;2247;42.666;23.292;2023-03-01T15:07:49;5.60;;;2.97;;
4468;SDS011;2247;42.666;23.292;2023-03-01T15:10:19;4.70;;;2.53;;
4468;SDS011;2247;42.666;23.292;2023-03-01T15:12:48;6.67;;;2.90;;
4468;SDS011;2247;42.666;23.292;2023-03-01T15:15:36;2.90;;;2.60;;
4468;SDS011;2247;42.666;23.292;2023-03-01T15:18:12;5.00;;;2.80;;
4468;SDS011;2247;42.666;23.292;2023-03-01T15:20:46;3.23;;;2.90;;
4468;SDS011;2247;42.666;23.292;2023-03-01T15:23:19;3.60;;;3.30;;
4468;SDS011;2247;42.666;23.292;2023-03-01T15:25:49;4.73;;;4.07;;
4468;SDS011;2247;42.666;23.292;2023-03-01T15:28:23;9.63;;;3.90;;
4468;SDS011;2247;42.666;23.292;2023-03-01T15:30:54;5.53;;;3.80;;
4468;SDS011;2247;42.666;23.292;2023-03-01T15:33:31;4.27;;;3.53;;
4468;SDS011;2247;42.666;23.292;2023-03-01T15:36:02;4.63;;;3.77;;
4468;SDS011;2247;42.666;23.292;2023-03-01T15:38:50;7.40;;;4.30;;
4468;SDS011;2247;42.666;23.292;2023-03-01T15:41:22;9.47;;;4.50;;
4468;SDS011;2247;42.666;23.292;2023-03-01T15:43:51;4.33;;;3.77;;
4468;SDS011;2247;42.666;23.292;2023-03-01T15:46:22;4.53;;;3.13;;
4468;SDS011;2247;42.666;23.292;2023-03-01T15:48:54;6.63;;;3.73;;
4468;SDS011;2247;42.666;23.292;2023-03-01T15:51:28;4.30;;;3.73;;
4468;SDS011;2247;42.666;23.292;2023-03-01T15:54:02;5.57;;;3.80;;